ADDS METAR Data INFO
IDs: Format: Raw Decoded Include TAF

Data at: 0902 UTC 20 Oct 2017

PHJR 200853Z AUTO 07008KT FEW043 26/18 A3011 RMK AO2 SLP203 T02560178 50004 TSNO $
PHJR 200753Z AUTO 07005KT SCT055 26/18 A3012 RMK AO2 SLP205 T02560178 TSNO $
PHJR 200653Z 07007KT CLR 24/17 A3012 RMK AO2 SLP204 T02440172 $
PHJR 200553Z 06007KT 030V090 FEW055 26/18 A3010 RMK AO2 SLP199 60000 T02560178 10294 20244 53018 $
PHJR 200453Z 05007G19KT 020V080 FEW040 BKN055 24/18 A3009 RMK AO2 RAB39E50 SLP196 P0000 T02440178 $
PHJR 200353Z 06011G22KT 030V100 FEW050 27/18 A3006 RMK AO2 SLP184 T02670178 $
PHJR 200253Z 07011G23KT FEW048 28/17 A3005 RMK AO2 SLP181 60000 T02780172 56005 $
PHJR 200153Z 06010G21KT 030V090 FEW046 SCT055 28/17 A3005 RMK AO2 SLP182 T02780172 $
PHJR 200053Z 05010G19KT 020V080 FEW040 SCT055 29/17 A3005 RMK AO2 PK WND 04026/0018 RAB21E31 SLP182 P0000 T02890172 $
PHJR 192353Z 06011G20KT 030V110 FEW044 SCT060 BKN070 29/18 A3006 RMK AO2 PK WND 06026/2306 RAB08E17 SLP186 P0000 60000 T02940178 10306 20256 58023 $
PHJR 192253Z 06011G20KT 030V100 FEW060 31/17 A3009 RMK AO2 RAE15 SLP195 P0000 T03060172 $
PHJR 192153Z 07008KT 030V110 -RA SCT036 BKN046 BKN065 27/19 A3012 RMK AO2 RAE16B40 SLP205 P0000 T02720194 $
PHJR 192053Z 06008G17KT -RA BKN038 BKN049 OVC060 27/19 A3013 RMK AO2 PK WND 08026/2001 RAB53 SLP210 P0000 60000 T02720189 51011 $
PHJR 191953Z 08014G23KT FEW038 FEW046 SCT055 29/17 A3011 RMK AO2 SLP204 T02940167 $
PHJR 191853Z 07009G16KT 040V100 FEW042 SCT055 28/18 A3012 RMK AO2 SLP205 T02780178 $
PHJR 191753Z 07008G19KT CLR 27/17 A3010 RMK AO2 SLP199 60001 T02670172 10267 20228 50009 $
PHJR 191653Z 07007KT CLR 24/17 A3011 RMK AO2 SLP201 T02440167 $
PHJR 191553Z AUTO 08006KT CLR 23/18 A3010 RMK AO2 RAB11E23 SLP197 P0001 T02330178 TSNO $
PHJR 191453Z AUTO 07006KT CLR 24/18 A3007 RMK AO2 SLP190 60000 T02440178 58006 TSNO $
PHJR 191353Z AUTO 06005KT BKN065 24/18 A3008 RMK AO2 RAE1258 SLP193 P0000 T02390183 TSNO $
PHJR 191253Z AUTO 04007KT 360V060 -RA FEW047 BKN060 23/19 A3009 RMK AO2 RAB20E31B48 SLP194 P0000 T02330189 TSNO $
PHJR 191153Z AUTO 07004KT SCT060 BKN070 24/17 A3009 RMK AO2 SLP196 60001 70002 T02440172 10250 20228 58013 TSNO $
PHJR 191053Z AUTO 08004KT CLR 24/18 A3012 RMK AO2 SLP204 T02390178 TSNO $
PHJR 190953Z AUTO 08005KT FEW050 24/18 A3012 RMK AO2 SLP204 T02440178 403060228 TSNO $
PHJR 190853Z AUTO 06005KT SCT043 BKN055 BKN070 23/19 A3013 RMK AO2 RAB37E50 SLP209 P0000 60001 T02330189 51009 TSNO $
PHJR 190753Z 05004KT FEW045 SCT050 BKN070 23/20 A3013 RMK AO2 RAE03 SLP208 P0000 T02280200 $
PHJR 190653Z 06005KT -RA OVC035 23/19 A3013 RMK AO2 RAB29 SLP208 P0001 T02280194 $
PHJR 190553Z 04007KT FEW046 BKN065 24/18 A3010 RMK AO2 SLP200 T02440183 10294 20244 53019 $
PHJR 190453Z VRB06KT FEW046 BKN065 26/18 A3008 RMK AO2 SLP192 T02610178 $
PHJR 190353Z 06008G17KT FEW019 FEW047 27/17 A3006 RMK AO2 SLP184 T02670172 $
PHJR 190253Z 07010G18KT FEW043 SCT050 28/17 A3005 RMK AO2 SLP181 T02830167 56007 $
PHJR 190153Z 05011G19KT CLR 29/17 A3005 RMK AO2 SLP183 T02890167 $
PHJR 190053Z 07008G25KT CLR 29/17 A3005 RMK AO2 PK WND 08026/0040 SLP180 T02940167 $
PHJR 182353Z 05010G18KT FEW032 BKN060 BKN075 27/20 A3007 RMK AO2 PK WND 05028/2315 RAB17E35 SLP188 P0001 60001 T02670200 10306 20244 56019 $
PHJR 182253Z 04009G23KT 360V060 SCT046 SCT055 30/17 A3007 RMK AO2 SLP190 T03000172 $
PHJR 182153Z 06010G18KT FEW037 SCT046 29/17 A3010 RMK AO2 RAE2056 SLP199 P0000 T02940172 $